Time;durP1;ratioP1;P1;durP2;ratioP2;P2;SDS_P1;SDS_P2;PMS_P1;PMS_P2;Temp;Humidity;BMP_temperature;BMP_pressure;BME280_temperature;BME280_humidity;BME280_pressure;Samples;Min_cycle;Max_cycle;Signal;HPM_P1;HPM_P2
2023/10/06 00:00:42;;;;;;;16.20;6.30;;;10.90;85.20;;;;;;5026699;28;20434;-70
2023/10/06 00:03:14;;;;;;;11.93;6.30;;;11.00;85.00;;;;;;5030536;28;20504;-68
2023/10/06 00:05:40;;;;;;;15.40;6.40;;;10.80;84.00;;;;;;5022141;28;20460;-68
2023/10/06 00:08:11;;;;;;;15.17;6.13;;;10.60;84.00;;;;;;5032102;28;20423;-69
2023/10/06 00:10:44;;;;;;;16.07;6.40;;;10.50;84.60;;;;;;5026178;28;20872;-68
2023/10/06 00:13:23;;;;;;;11.23;5.57;;;10.50;84.70;;;;;;5030980;28;20423;-69
2023/10/06 00:15:51;;;;;;;17.27;6.60;;;10.50;85.00;;;;;;5029446;28;20873;-68
2023/10/06 00:18:26;;;;;;;13.53;6.17;;;10.40;85.20;;;;;;5032940;28;20420;-70
2023/10/06 00:20:56;;;;;;;17.20;6.57;;;10.40;85.00;;;;;;5033644;28;20458;-69
2023/10/06 00:23:22;;;;;;;14.73;7.80;;;10.30;85.30;;;;;;5032678;28;20459;-68
2023/10/06 00:25:54;;;;;;;12.30;6.40;;;10.20;85.50;;;;;;5028535;28;20510;-68
2023/10/06 00:28:32;;;;;;;12.80;6.13;;;10.20;85.90;;;;;;5030586;28;20470;-68
2023/10/06 00:31:06;;;;;;;10.23;5.60;;;10.20;86.20;;;;;;5031010;28;20416;-68
2023/10/06 00:33:32;;;;;;;15.30;7.37;;;10.30;86.30;;;;;;5029135;28;20490;-68
2023/10/06 00:35:59;;;;;;;23.10;7.43;;;10.20;86.30;;;;;;5029540;28;20456;-67
2023/10/06 00:38:25;;;;;;;13.40;6.43;;;10.30;86.60;;;;;;5028548;28;20424;-67
2023/10/06 00:40:54;;;;;;;10.93;5.97;;;10.30;86.60;;;;;;5031349;28;21002;-68
2023/10/06 00:43:39;;;;;;;12.10;6.30;;;10.40;86.50;;;;;;5027907;28;20185;-67
2023/10/06 00:46:08;;;;;;;10.10;5.77;;;10.40;86.50;;;;;;5025106;28;20443;-68
2023/10/06 00:48:40;;;;;;;10.83;5.80;;;10.40;86.20;;;;;;5024191;28;20467;-68
2023/10/06 00:51:13;;;;;;;20.03;6.27;;;10.40;86.20;;;;;;5025341;28;20420;-69
2023/10/06 00:53:42;;;;;;;16.20;6.57;;;10.30;85.90;;;;;;5024305;28;20427;-69
2023/10/06 00:56:11;;;;;;;9.50;5.53;;;10.30;86.00;;;;;;5024835;28;20456;-68
2023/10/06 00:58:41;;;;;;;12.37;6.87;;;10.20;86.20;;;;;;5022971;28;20477;-68
2023/10/06 01:01:12;;;;;;;15.70;5.90;;;10.30;86.30;;;;;;5031674;28;20484;-68
2023/10/06 01:03:39;;;;;;;14.47;6.10;;;10.40;86.30;;;;;;5026919;28;20416;-68
2023/10/06 01:06:12;;;;;;;22.30;6.67;;;10.30;86.00;;;;;;5026461;28;20996;-69
2023/10/06 01:08:37;;;;;;;9.90;5.57;;;10.30;85.90;;;;;;5031258;28;20498;-66
2023/10/06 01:11:11;;;;;;;13.37;5.93;;;10.30;85.90;;;;;;5031976;28;20428;-67
2023/10/06 01:13:52;;;;;;;15.90;6.13;;;10.30;86.00;;;;;;5031178;28;20208;-67
2023/10/06 01:16:22;;;;;;;14.43;5.80;;;10.30;85.90;;;;;;5029348;28;20460;-68
2023/10/06 01:18:52;;;;;;;15.60;6.60;;;10.10;86.00;;;;;;5028221;28;20455;-67
2023/10/06 01:21:28;;;;;;;15.60;6.13;;;10.10;86.20;;;;;;5030177;28;20427;-67
2023/10/06 01:23:58;;;;;;;16.97;5.90;;;10.10;86.50;;;;;;5029080;28;21278;-68
2023/10/06 01:26:24;;;;;;;16.33;6.20;;;10.10;86.60;;;;;;5025368;28;20494;-68
2023/10/06 01:28:51;;;;;;;13.10;6.87;;;10.10;86.80;;;;;;5026269;28;20461;-67
2023/10/06 01:31:19;;;;;;;13.33;6.13;;;10.20;86.50;;;;;;5025794;28;20424;-68
2023/10/06 01:33:45;;;;;;;13.70;6.33;;;10.20;86.00;;;;;;5024303;28;20972;-68
2023/10/06 01:36:13;;;;;;;17.17;7.70;;;10.10;85.60;;;;;;5026787;28;20884;-68
2023/10/06 01:38:45;;;;;;;16.47;6.10;;;10.00;85.60;;;;;;5026648;28;20450;-68
2023/10/06 01:41:11;;;;;;;16.07;7.40;;;9.90;85.70;;;;;;5028849;28;20439;-68
2023/10/06 01:43:38;;;;;;;14.77;7.17;;;9.90;86.20;;;;;;5025035;28;20408;-69
2023/10/06 01:46:07;;;;;;;13.37;6.70;;;9.90;86.30;;;;;;5027822;28;20550;-68
2023/10/06 01:48:33;;;;;;;19.27;7.50;;;9.90;86.60;;;;;;5029365;28;20586;-69
2023/10/06 01:50:59;;;;;;;12.60;6.50;;;9.90;86.80;;;;;;5030043;28;21031;-70
2023/10/06 01:53:31;;;;;;;17.73;7.13;;;10.00;86.60;;;;;;5028016;28;20510;-69
2023/10/06 01:56:01;;;;;;;14.53;7.03;;;10.00;86.50;;;;;;5028000;28;20693;-68
2023/10/06 01:58:27;;;;;;;20.83;8.40;;;9.90;86.30;;;;;;5030108;28;20459;-68
2023/10/06 02:00:52;;;;;;;18.80;7.00;;;10.00;86.50;;;;;;5030423;28;20859;-68
2023/10/06 02:03:20;;;;;;;15.27;6.43;;;9.90;86.30;;;;;;5025809;28;20466;-68
2023/10/06 02:05:46;;;;;;;16.23;7.27;;;9.90;86.00;;;;;;5025751;28;20214;-68
2023/10/06 02:08:21;;;;;;;16.20;6.97;;;9.80;86.20;;;;;;5024261;28;20471;-68
2023/10/06 02:10:50;;;;;;;12.10;6.80;;;9.70;86.30;;;;;;5026479;28;20188;-68
2023/10/06 02:13:20;;;;;;;13.20;7.00;;;9.80;86.50;;;;;;5026975;28;20435;-68
2023/10/06 02:15:46;;;;;;;13.47;5.97;;;9.70;86.60;;;;;;5025506;28;20853;-68
2023/10/06 02:18:12;;;;;;;19.37;7.60;;;9.70;86.90;;;;;;5028763;28;20424;-69
2023/10/06 02:20:41;;;;;;;21.93;8.13;;;9.70;86.90;;;;;;5030455;28;20173;-69
2023/10/06 02:23:07;;;;;;;16.90;7.10;;;9.70;87.00;;;;;;5030111;28;20196;-69
2023/10/06 02:25:33;;;;;;;13.13;6.33;;;9.80;86.90;;;;;;5021699;28;20447;-69
2023/10/06 02:28:04;;;;;;;18.60;8.37;;;9.80;86.30;;;;;;5027099;28;20420;-68
2023/10/06 02:30:40;;;;;;;11.27;6.27;;;9.60;86.20;;;;;;5022655;28;20186;-69
2023/10/06 02:33:06;;;;;;;16.50;6.57;;;9.60;86.20;;;;;;5028887;28;20566;-69
2023/10/06 02:35:35;;;;;;;16.13;7.53;;;9.70;86.20;;;;;;5015786;28;20460;-68
2023/10/06 02:38:05;;;;;;;16.83;7.10;;;9.60;85.90;;;;;;5029402;28;20838;-69
2023/10/06 02:40:38;;;;;;;18.80;7.27;;;9.60;85.90;;;;;;5030030;28;20514;-69
2023/10/06 02:43:06;;;;;;;15.60;7.17;;;9.60;85.90;;;;;;5028865;28;20553;-69
2023/10/06 02:45:40;;;;;;;14.47;6.57;;;9.50;86.20;;;;;;5026729;28;20460;-69
2023/10/06 02:48:15;;;;;;;14.70;6.73;;;9.50;86.50;;;;;;5028931;28;20431;-68
2023/10/06 02:50:45;;;;;;;19.27;7.40;;;9.40;86.50;;;;;;5030503;28;20415;-69
2023/10/06 02:53:13;;;;;;;14.93;7.30;;;9.60;86.80;;;;;;5026324;28;20435;-69
2023/10/06 02:55:43;;;;;;;15.43;7.50;;;9.60;86.20;;;;;;5022608;28;20452;-69
2023/10/06 02:58:09;;;;;;;17.80;7.23;;;9.40;86.20;;;;;;5024065;28;20448;-69
2023/10/06 03:00:36;;;;;;;12.67;5.80;;;9.50;86.60;;;;;;5029570;28;20432;-69
2023/10/06 03:03:18;;;;;;;10.20;6.17;;;9.60;86.20;;;;;;5024945;28;20415;-69
2023/10/06 03:05:49;;;;;;;18.70;6.57;;;9.60;86.20;;;;;;5025537;28;20467;-69
2023/10/06 03:08:20;;;;;;;20.80;7.10;;;9.50;85.90;;;;;;5022590;28;20472;-69
2023/10/06 03:10:49;;;;;;;12.73;6.17;;;9.50;86.20;;;;;;5030351;28;20434;-69
2023/10/06 03:13:33;;;;;;;16.77;7.73;;;9.40;86.20;;;;;;5028214;28;20800;-69
2023/10/06 03:15:59;;;;;;;17.33;7.70;;;9.30;86.30;;;;;;5022579;28;20499;-69
2023/10/06 03:18:26;;;;;;;17.93;7.63;;;9.20;86.30;;;;;;5030145;28;20971;-69
2023/10/06 03:20:59;;;;;;;20.80;8.27;;;9.20;86.80;;;;;;5026952;28;20437;-69
2023/10/06 03:23:38;;;;;;;16.90;7.83;;;9.20;86.90;;;;;;5030690;28;20435;-69
2023/10/06 03:26:25;;;;;;;17.30;6.83;;;9.20;87.00;;;;;;5021916;28;20460;-69
2023/10/06 03:28:53;;;;;;;15.70;7.67;;;9.30;87.10;;;;;;5027034;28;20478;-68
2023/10/06 03:33:49;;;;;;;18.80;7.33;;;9.40;87.10;;;;;;5028505;28;20448;-69
2023/10/06 03:36:16;;;;;;;23.43;8.50;;;9.40;87.10;;;;;;5025867;28;20470;-68
2023/10/06 03:38:57;;;;;;;17.20;8.43;;;9.40;87.10;;;;;;5027099;28;20574;-68
2023/10/06 03:41:31;;;;;;;15.10;7.43;;;9.40;87.00;;;;;;5025735;28;20984;-69
2023/10/06 03:44:00;;;;;;;11.37;6.73;;;9.40;87.10;;;;;;5029317;28;20420;-69
2023/10/06 03:46:27;;;;;;;15.00;6.70;;;9.40;87.10;;;;;;5025270;28;20819;-68
2023/10/06 03:48:52;;;;;;;16.60;7.67;;;9.50;87.00;;;;;;5026009;28;20467;-68
2023/10/06 03:51:19;;;;;;;14.33;7.37;;;9.40;86.90;;;;;;5024855;28;20420;-69
2023/10/06 03:53:47;;;;;;;14.93;7.00;;;9.40;87.00;;;;;;5029236;28;20604;-69
2023/10/06 03:56:13;;;;;;;22.20;7.33;;;9.40;87.00;;;;;;5025251;28;20479;-70
2023/10/06 03:58:38;;;;;;;13.40;6.43;;;9.40;87.00;;;;;;5024862;28;20794;-71
2023/10/06 04:01:08;;;;;;;14.73;8.47;;;9.30;86.90;;;;;;5028986;28;20416;-70
2023/10/06 04:03:34;;;;;;;16.47;6.83;;;9.30;87.00;;;;;;5023597;28;20197;-70
2023/10/06 04:06:03;;;;;;;13.03;7.13;;;9.30;87.10;;;;;;5025922;28;20550;-69
2023/10/06 04:08:29;;;;;;;21.17;7.97;;;9.40;86.90;;;;;;5029017;28;20229;-69
2023/10/06 04:10:58;;;;;;;15.60;7.40;;;9.30;86.50;;;;;;5028986;28;20456;-70
2023/10/06 04:13:24;;;;;;;14.83;7.33;;;9.20;86.50;;;;;;5027783;28;20185;-69
2023/10/06 04:15:52;;;;;;;16.43;6.67;;;9.30;86.80;;;;;;5024782;28;20448;-69
2023/10/06 04:18:21;;;;;;;14.47;7.30;;;9.30;86.60;;;;;;5029443;28;20427;-68
2023/10/06 04:20:48;;;;;;;11.13;6.93;;;9.20;86.30;;;;;;5030056;28;20424;-69
2023/10/06 04:23:16;;;;;;;16.67;7.33;;;9.20;86.50;;;;;;5028633;28;20796;-69
2023/10/06 04:25:42;;;;;;;18.37;6.87;;;9.30;86.80;;;;;;5024053;28;21022;-69
2023/10/06 04:28:14;;;;;;;17.73;7.23;;;9.20;86.60;;;;;;5026257;28;20424;-68
2023/10/06 04:30:44;;;;;;;13.13;6.30;;;9.10;86.50;;;;;;5027400;28;20441;-69
2023/10/06 04:33:11;;;;;;;16.87;8.50;;;9.00;86.80;;;;;;5029344;28;20438;-68
2023/10/06 04:35:42;;;;;;;19.03;8.17;;;9.00;86.90;;;;;;5026543;28;20538;-68
2023/10/06 04:38:10;;;;;;;17.60;8.50;;;9.00;86.90;;;;;;5028485;28;20427;-68
2023/10/06 04:40:36;;;;;;;20.03;8.80;;;8.90;86.90;;;;;;5030375;28;20415;-68
2023/10/06 04:43:03;;;;;;;18.70;8.30;;;8.90;87.00;;;;;;5027993;28;20415;-70
2023/10/06 04:45:31;;;;;;;21.20;8.80;;;9.00;87.30;;;;;;5027695;28;20502;-69
2023/10/06 04:48:00;;;;;;;16.90;8.40;;;9.00;87.30;;;;;;5031747;28;20434;-70
2023/10/06 04:50:29;;;;;;;17.83;8.50;;;9.00;87.30;;;;;;5028411;28;20451;-69
2023/10/06 04:52:58;;;;;;;16.77;7.80;;;9.00;87.30;;;;;;5033161;28;20438;-70
2023/10/06 04:55:24;;;;;;;22.90;9.20;;;9.10;87.30;;;;;;5025933;28;20449;-70
2023/10/06 04:57:49;;;;;;;18.40;9.10;;;9.10;87.30;;;;;;5031909;28;20685;-70
2023/10/06 05:00:19;;;;;;;20.33;8.80;;;9.00;87.00;;;;;;5032694;28;20692;-70
2023/10/06 05:02:47;;;;;;;12.00;7.73;;;9.00;87.10;;;;;;5031919;28;20231;-69
2023/10/06 05:05:19;;;;;;;17.20;7.80;;;9.10;87.30;;;;;;5029494;28;20971;-70
2023/10/06 05:07:46;;;;;;;17.00;8.57;;;9.00;86.90;;;;;;5031119;28;20424;-70
2023/10/06 05:10:12;;;;;;;21.83;9.87;;;9.00;87.00;;;;;;5031423;28;20471;-70
2023/10/06 05:12:38;;;;;;;17.53;9.30;;;9.00;87.00;;;;;;5031852;28;20931;-70
2023/10/06 05:15:14;;;;;;;20.30;9.20;;;9.00;87.00;;;;;;5031160;28;20550;-71
2023/10/06 05:17:40;;;;;;;16.33;9.23;;;9.00;87.10;;;;;;5044869;28;20192;-70
2023/10/06 05:20:13;;;;;;;18.73;8.60;;;9.00;87.10;;;;;;5029589;28;20511;-70
2023/10/06 05:22:40;;;;;;;25.43;9.13;;;9.00;87.00;;;;;;5030715;28;20188;-69
2023/10/06 05:25:12;;;;;;;22.10;9.43;;;9.00;87.00;;;;;;5028655;28;20485;-70
2023/10/06 05:27:38;;;;;;;18.00;8.20;;;9.00;87.00;;;;;;5026595;28;20735;-70
2023/10/06 05:30:06;;;;;;;19.13;8.80;;;9.00;87.00;;;;;;5028132;28;20467;-70
2023/10/06 05:32:32;;;;;;;15.53;8.50;;;9.00;86.90;;;;;;5030951;28;20932;-70
2023/10/06 05:34:58;;;;;;;20.00;9.30;;;8.90;86.80;;;;;;5028925;28;20970;-70
2023/10/06 05:37:23;;;;;;;19.70;8.93;;;8.90;86.90;;;;;;5026285;28;20912;-69
2023/10/06 05:39:49;;;;;;;13.80;7.80;;;8.90;87.10;;;;;;5029835;28;20200;-69
2023/10/06 05:42:15;;;;;;;15.87;7.77;;;9.00;87.40;;;;;;5021941;28;20189;-69
2023/10/06 05:44:41;;;;;;;18.10;9.40;;;9.00;87.00;;;;;;5029542;28;20192;-69
2023/10/06 05:47:08;;;;;;;14.90;8.03;;;9.00;87.00;;;;;;5026743;28;20209;-68
2023/10/06 05:49:35;;;;;;;18.07;8.83;;;9.00;86.90;;;;;;5030888;28;20471;-69
2023/10/06 05:52:03;;;;;;;22.63;10.93;;;8.90;86.90;;;;;;5031363;28;20431;-70
2023/10/06 05:54:29;;;;;;;19.07;8.17;;;8.90;86.90;;;;;;5033108;28;20416;-69
2023/10/06 05:56:55;;;;;;;16.03;8.50;;;9.00;87.10;;;;;;5028493;28;20452;-69
2023/10/06 05:59:21;;;;;;;18.50;10.00;;;9.10;87.30;;;;;;5031806;28;20420;-69
2023/10/06 06:01:56;;;;;;;17.20;8.53;;;9.10;87.30;;;;;;5028768;28;20185;-68
2023/10/06 06:04:27;;;;;;;17.23;8.60;;;9.20;87.30;;;;;;5030906;28;20432;-70
2023/10/06 06:06:57;;;;;;;17.50;9.70;;;9.10;86.90;;;;;;5022689;28;20456;-70
2023/10/06 06:09:33;;;;;;;21.90;9.87;;;9.00;87.00;;;;;;5029357;28;20523;-69
2023/10/06 06:12:00;;;;;;;16.97;8.63;;;9.00;87.10;;;;;;5026620;28;20412;-69
2023/10/06 06:14:25;;;;;;;15.67;8.17;;;9.10;87.30;;;;;;5029608;28;20502;-70
2023/10/06 06:16:52;;;;;;;25.63;8.37;;;9.30;86.90;;;;;;5025664;28;20492;-70
2023/10/06 06:19:18;;;;;;;23.50;8.87;;;9.30;86.30;;;;;;5028389;28;20205;-70
2023/10/06 06:21:45;;;;;;;21.00;9.10;;;9.30;86.00;;;;;;5029142;28;20419;-70
2023/10/06 06:24:11;;;;;;;15.27;8.80;;;9.30;86.20;;;;;;5027048;28;20209;-70
2023/10/06 06:26:37;;;;;;;19.23;9.17;;;9.30;86.30;;;;;;5028195;28;20455;-69
2023/10/06 06:29:08;;;;;;;15.47;9.10;;;9.40;86.50;;;;;;5024081;28;21163;-69
2023/10/06 06:31:34;;;;;;;20.97;10.00;;;9.50;86.60;;;;;;5019710;28;20523;-69
2023/10/06 06:34:04;;;;;;;17.13;8.40;;;9.60;86.50;;;;;;5021361;28;20991;-69
2023/10/06 06:36:31;;;;;;;18.70;9.90;;;9.60;86.50;;;;;;5022674;28;20547;-69
2023/10/06 06:38:58;;;;;;;18.57;9.63;;;9.60;86.20;;;;;;5016865;28;20423;-68
2023/10/06 06:41:24;;;;;;;22.17;9.73;;;9.60;86.20;;;;;;5026804;28;20804;-70
2023/10/06 06:43:57;;;;;;;25.97;10.87;;;9.60;86.20;;;;;;5020678;28;20424;-69
2023/10/06 06:46:23;;;;;;;24.20;9.50;;;9.70;86.50;;;;;;5023725;28;20507;-69
2023/10/06 06:48:49;;;;;;;21.13;9.87;;;9.70;86.20;;;;;;5023626;28;20918;-69
2023/10/06 06:51:14;;;;;;;22.03;9.60;;;9.80;86.00;;;;;;5024519;28;20188;-71
2023/10/06 06:53:40;;;;;;;22.83;10.70;;;9.80;85.90;;;;;;5029165;28;20177;-69
2023/10/06 06:56:06;;;;;;;25.80;12.00;;;9.90;85.90;;;;;;5026037;28;20581;-69
2023/10/06 06:58:32;;;;;;;25.37;11.63;;;9.90;85.50;;;;;;5029274;28;20285;-70
2023/10/06 07:00:58;;;;;;;28.97;10.50;;;9.90;85.50;;;;;;5030117;28;20968;-70
2023/10/06 07:03:24;;;;;;;24.00;12.27;;;10.00;85.30;;;;;;5028177;28;20518;-70
2023/10/06 07:05:50;;;;;;;24.20;12.00;;;10.00;84.70;;;;;;5026658;28;20463;-70
2023/10/06 07:08:16;;;;;;;23.50;11.10;;;10.00;85.00;;;;;;5024892;28;20181;-70
2023/10/06 07:11:03;;;;;;;24.17;11.50;;;10.00;84.70;;;;;;5028823;28;20427;-69
2023/10/06 07:13:28;;;;;;;19.97;11.10;;;10.00;84.70;;;;;;5026120;28;20439;-68
2023/10/06 07:15:54;;;;;;;22.60;11.50;;;10.00;84.70;;;;;;5025757;28;20471;-69
2023/10/06 07:18:19;;;;;;;22.80;10.70;;;10.00;84.70;;;;;;5030979;28;20201;-68
2023/10/06 07:20:45;;;;;;;24.27;11.10;;;10.10;85.00;;;;;;5029350;28;20657;-70
2023/10/06 07:23:11;;;;;;;26.30;11.40;;;10.20;84.70;;;;;;5028961;28;20283;-70
2023/10/06 07:25:37;;;;;;;23.67;10.47;;;10.20;84.60;;;;;;5026803;28;20196;-70
2023/10/06 07:28:05;;;;;;;27.80;10.77;;;10.20;84.60;;;;;;5028496;28;20213;-70
2023/10/06 07:30:34;;;;;;;17.60;9.73;;;10.30;84.70;;;;;;5023299;28;20432;-70
2023/10/06 07:33:00;;;;;;;16.87;9.97;;;10.40;84.40;;;;;;5026466;28;20951;-69
2023/10/06 07:38:24;;;;;;;19.53;9.63;;;10.40;84.10;;;;;;5001107;28;20456;-70
2023/10/06 07:40:50;;;;;;;21.43;10.80;;;10.50;84.10;;;;;;5003984;28;20480;-70
2023/10/06 07:43:17;;;;;;;18.80;10.17;;;10.60;84.10;;;;;;5005127;28;20189;-70
2023/10/06 07:45:42;;;;;;;16.80;9.03;;;10.60;84.10;;;;;;4998898;28;20205;-70
2023/10/06 07:48:09;;;;;;;19.13;10.23;;;10.70;83.80;;;;;;4997667;28;20456;-69
2023/10/06 07:50:35;;;;;;;17.77;10.23;;;10.80;83.80;;;;;;5001717;28;20690;-70
2023/10/06 07:53:01;;;;;;;24.70;11.80;;;10.90;83.70;;;;;;5004292;28;20466;-69
2023/10/06 07:55:27;;;;;;;21.10;11.07;;;11.00;83.60;;;;;;4998982;28;20456;-69
2023/10/06 07:57:53;;;;;;;20.97;10.60;;;11.10;83.10;;;;;;5002888;28;20548;-70
2023/10/06 08:00:38;;;;;;;27.50;11.07;;;11.20;82.80;;;;;;4998959;28;20659;-70
2023/10/06 08:03:04;;;;;;;20.33;10.50;;;11.30;82.50;;;;;;5002179;28;20811;-68
2023/10/06 08:05:30;;;;;;;19.33;9.90;;;11.40;82.40;;;;;;5003498;28;20460;-68
2023/10/06 08:07:59;;;;;;;16.60;9.60;;;11.40;81.90;;;;;;5003259;28;20429;-69
2023/10/06 08:10:24;;;;;;;15.30;8.80;;;11.40;81.80;;;;;;5004370;28;21026;-68
2023/10/06 08:12:52;;;;;;;15.70;9.37;;;11.50;81.50;;;;;;5009508;28;20433;-69
2023/10/06 08:15:21;;;;;;;18.43;9.17;;;11.50;81.40;;;;;;5022465;28;20291;-69
2023/10/06 08:17:55;;;;;;;18.90;10.57;;;11.50;81.50;;;;;;5027499;28;20412;-69
2023/10/06 08:20:21;;;;;;;16.23;9.70;;;11.60;81.50;;;;;;5033387;28;20565;-70
2023/10/06 08:22:49;;;;;;;17.97;9.23;;;11.70;81.20;;;;;;5032819;28;20456;-69
2023/10/06 08:25:18;;;;;;;16.30;8.77;;;11.80;81.20;;;;;;5027751;28;20466;-69
2023/10/06 08:27:45;;;;;;;15.47;8.67;;;11.90;80.90;;;;;;5027542;28;20939;-69
2023/10/06 08:30:16;;;;;;;14.10;9.07;;;12.00;80.50;;;;;;5030295;28;20459;-69
2023/10/06 08:32:52;;;;;;;17.20;7.83;;;12.20;79.30;;;;;;5033091;28;20431;-69
2023/10/06 08:35:19;;;;;;;13.07;8.50;;;12.20;79.20;;;;;;5025688;28;20459;-69
2023/10/06 08:37:47;;;;;;;18.83;8.70;;;12.30;79.20;;;;;;5030344;28;20423;-69
2023/10/06 08:40:17;;;;;;;17.10;8.30;;;12.30;78.70;;;;;;5032153;28;21052;-69
2023/10/06 08:42:48;;;;;;;17.63;7.50;;;12.30;78.90;;;;;;5031911;28;20423;-69
2023/10/06 08:45:21;;;;;;;12.90;7.93;;;12.50;78.70;;;;;;5029597;28;21062;-70
2023/10/06 08:47:49;;;;;;;12.40;8.00;;;12.60;78.70;;;;;;5032187;28;20783;-68
2023/10/06 08:50:20;;;;;;;14.30;8.33;;;12.60;78.30;;;;;;5030222;28;20479;-69
2023/10/06 08:52:50;;;;;;;17.00;7.90;;;12.80;77.80;;;;;;5032041;28;20920;-69
2023/10/06 08:55:17;;;;;;;13.80;7.50;;;12.90;77.60;;;;;;5027951;28;20449;-69
2023/10/06 08:57:47;;;;;;;17.00;7.77;;;13.00;77.10;;;;;;5033457;28;20855;-69
2023/10/06 09:00:17;;;;;;;18.90;9.17;;;13.00;76.70;;;;;;5027467;28;20984;-69
2023/10/06 09:02:45;;;;;;;18.90;8.87;;;13.10;76.50;;;;;;5031924;28;20784;-70
2023/10/06 09:05:11;;;;;;;18.37;8.90;;;13.20;76.70;;;;;;5025218;28;20470;-70
2023/10/06 09:07:37;;;;;;;19.63;8.13;;;13.50;76.20;;;;;;5029705;28;20760;-70
2023/10/06 09:10:19;;;;;;;17.53;7.93;;;13.60;75.80;;;;;;5028007;28;20823;-70
2023/10/06 09:12:59;;;;;;;13.17;8.50;;;13.80;75.10;;;;;;5028853;28;20239;-70
2023/10/06 09:15:25;;;;;;;17.37;8.80;;;14.00;74.30;;;;;;5028030;28;20461;-70
2023/10/06 09:17:53;;;;;;;29.17;10.77;;;14.20;74.00;;;;;;5031035;28;20420;-70
2023/10/06 09:20:32;;;;;;;19.20;7.53;;;14.40;73.50;;;;;;5030861;28;20324;-69
2023/10/06 09:22:59;;;;;;;13.63;7.90;;;14.50;72.70;;;;;;5025794;28;20428;-70
2023/10/06 09:25:25;;;;;;;14.73;7.30;;;14.60;72.40;;;;;;5026126;28;20460;-70
2023/10/06 09:28:04;;;;;;;13.23;8.27;;;14.80;72.00;;;;;;5026418;28;20951;-70
2023/10/06 09:30:45;;;;;;;14.57;7.00;;;14.90;71.70;;;;;;5030960;28;20576;-70
2023/10/06 09:33:11;;;;;;;12.13;7.70;;;15.00;71.70;;;;;;5031442;28;20993;-70
2023/10/06 09:35:36;;;;;;;13.07;7.50;;;15.10;71.30;;;;;;5027777;28;20457;-70
2023/10/06 09:38:13;;;;;;;16.37;8.77;;;15.20;70.50;;;;;;5029054;28;20816;-70
2023/10/06 09:40:43;;;;;;;13.17;7.47;;;15.30;70.20;;;;;;5027461;28;20182;-70
2023/10/06 09:43:13;;;;;;;13.73;7.60;;;15.40;70.40;;;;;;5028672;28;20428;-70
2023/10/06 09:45:41;;;;;;;16.50;7.13;;;15.40;70.10;;;;;;5027634;28;20551;-70
2023/10/06 09:48:13;;;;;;;15.70;7.83;;;15.50;69.90;;;;;;5027554;28;20445;-70
2023/10/06 09:50:42;;;;;;;14.50;7.40;;;15.60;69.70;;;;;;5028678;28;20800;-70
2023/10/06 09:53:12;;;;;;;18.80;8.67;;;15.70;69.50;;;;;;5031602;28;20426;-70
2023/10/06 09:55:40;;;;;;;19.93;8.83;;;15.90;69.10;;;;;;5027680;28;20882;-70
2023/10/06 09:58:07;;;;;;;18.87;7.70;;;15.90;69.10;;;;;;5028498;28;20973;-70
2023/10/06 10:00:36;;;;;;;11.10;6.70;;;16.00;68.90;;;;;;5023070;28;20535;-70
2023/10/06 10:03:03;;;;;;;12.90;6.90;;;16.10;68.80;;;;;;5030197;28;20463;-70
2023/10/06 10:05:29;;;;;;;13.77;7.30;;;16.20;68.60;;;;;;5023673;28;20463;-70
2023/10/06 10:07:55;;;;;;;15.23;7.23;;;16.30;68.30;;;;;;5028881;28;20853;-71
2023/10/06 10:10:25;;;;;;;11.83;7.37;;;16.50;68.00;;;;;;5030802;28;20470;-69
2023/10/06 10:13:20;;;;;;;12.20;6.60;;;16.60;67.90;;;;;;5030028;28;20426;-69
2023/10/06 10:16:00;;;;;;;16.03;7.27;;;16.70;67.60;;;;;;5027861;28;20455;-69
2023/10/06 10:18:38;;;;;;;13.03;6.77;;;16.80;67.20;;;;;;5029044;28;20435;-69
2023/10/06 10:21:11;;;;;;;14.20;7.67;;;16.90;66.90;;;;;;5029766;28;20927;-70
2023/10/06 10:23:40;;;;;;;14.40;7.60;;;17.00;67.00;;;;;;5030436;28;20473;-70
2023/10/06 10:26:22;;;;;;;13.47;7.20;;;17.20;66.70;;;;;;5025695;28;20841;-70
2023/10/06 10:29:12;;;;;;;14.20;6.90;;;17.40;66.30;;;;;;5029027;28;20895;-68
2023/10/06 10:31:41;;;;;;;18.27;7.77;;;17.70;65.40;;;;;;5025027;28;20559;-69
2023/10/06 10:34:08;;;;;;;15.03;7.70;;;18.00;64.80;;;;;;5026560;28;20538;-70
2023/10/06 10:36:34;;;;;;;18.70;7.90;;;18.30;64.20;;;;;;5026838;28;21009;-70
2023/10/06 10:39:09;;;;;;;10.87;6.60;;;18.80;63.50;;;;;;5026533;28;20452;-70
2023/10/06 10:41:37;;;;;;;13.10;6.40;;;19.10;63.20;;;;;;5029667;28;20424;-70
2023/10/06 10:44:07;;;;;;;14.63;6.90;;;19.50;62.80;;;;;;5030000;28;21267;-69
2023/10/06 10:46:44;;;;;;;14.90;7.20;;;19.90;63.20;;;;;;5026138;28;20577;-71
2023/10/06 10:49:13;;;;;;;11.23;7.00;;;20.20;62.60;;;;;;5021555;28;20470;-71
2023/10/06 10:51:57;;;;;;;13.63;6.73;;;20.30;62.50;;;;;;5031148;28;20517;-71
2023/10/06 10:54:27;;;;;;;15.20;7.57;;;20.60;62.20;;;;;;5030098;28;20849;-70
2023/10/06 10:56:53;;;;;;;13.73;7.20;;;20.80;61.60;;;;;;5019469;28;20473;-71
2023/10/06 10:59:22;;;;;;;12.13;6.03;;;20.60;61.90;;;;;;5029442;28;20427;-71
2023/10/06 11:01:54;;;;;;;14.20;6.67;;;20.60;62.00;;;;;;5028835;28;20473;-71
2023/10/06 11:04:21;;;;;;;13.90;8.17;;;20.70;62.00;;;;;;5029442;28;20530;-70
2023/10/06 11:06:49;;;;;;;12.23;6.30;;;20.80;61.90;;;;;;5025270;28;20474;-71
2023/10/06 11:09:29;;;;;;;10.13;6.33;;;21.20;61.20;;;;;;5029227;28;20507;-69
2023/10/06 11:12:01;;;;;;;15.10;6.57;;;21.40;60.70;;;;;;5026040;28;20450;-70
2023/10/06 11:14:29;;;;;;;14.17;6.67;;;21.60;60.30;;;;;;5029857;28;20958;-70
2023/10/06 11:17:05;;;;;;;12.47;7.47;;;21.60;59.90;;;;;;5025134;28;21022;-70
2023/10/06 11:19:32;;;;;;;13.33;6.77;;;21.20;60.60;;;;;;5029518;28;20432;-70
2023/10/06 11:22:22;;;;;;;12.90;7.37;;;21.10;60.90;;;;;;5027086;28;20800;-70
2023/10/06 11:24:50;;;;;;;14.30;7.03;;;20.80;61.20;;;;;;5027845;28;20442;-71
2023/10/06 11:27:22;;;;;;;15.37;6.63;;;20.70;61.60;;;;;;5030211;28;20931;-71
2023/10/06 11:29:53;;;;;;;15.60;6.80;;;20.70;61.70;;;;;;5030877;28;20496;-70
2023/10/06 11:32:19;;;;;;;17.67;7.57;;;20.70;61.50;;;;;;5028806;28;20496;-70
2023/10/06 11:34:47;;;;;;;12.93;6.53;;;20.80;61.50;;;;;;5025007;28;20420;-70
2023/10/06 11:37:16;;;;;;;10.73;6.50;;;20.80;61.30;;;;;;5024070;28;20442;-70
2023/10/06 11:39:42;;;;;;;17.70;6.53;;;20.90;61.30;;;;;;5023051;28;20470;-70
2023/10/06 11:42:23;;;;;;;13.77;6.33;;;21.20;60.90;;;;;;5022141;28;20431;-70
2023/10/06 11:44:52;;;;;;;9.20;5.63;;;21.40;60.60;;;;;;5020582;28;20413;-70
2023/10/06 11:47:27;;;;;;;14.23;6.50;;;21.80;59.90;;;;;;5028957;28;20819;-71
2023/10/06 11:49:57;;;;;;;14.10;7.37;;;22.20;58.90;;;;;;5024362;28;20955;-71
2023/10/06 11:52:24;;;;;;;12.10;7.37;;;22.20;58.00;;;;;;5029150;28;20424;-70
2023/10/06 11:54:51;;;;;;;14.13;6.30;;;21.90;58.70;;;;;;5030674;28;20424;-70
2023/10/06 11:57:18;;;;;;;15.27;7.30;;;21.60;59.20;;;;;;5025676;28;20463;-70
2023/10/06 11:59:59;;;;;;;10.40;6.47;;;21.70;59.10;;;;;;5026082;28;20791;-70
2023/10/06 12:02:25;;;;;;;12.00;6.20;;;21.70;58.90;;;;;;5026731;28;20425;-71
2023/10/06 12:04:51;;;;;;;11.57;6.33;;;21.60;59.20;;;;;;5026428;28;20446;-68
2023/10/06 12:07:25;;;;;;;13.20;6.90;;;21.60;59.50;;;;;;5024425;28;20443;-70
2023/10/06 12:10:00;;;;;;;11.80;6.07;;;21.60;59.20;;;;;;5032436;28;20217;-70
2023/10/06 12:12:26;;;;;;;11.17;6.90;;;21.80;59.30;;;;;;5026114;28;20915;-71
2023/10/06 12:14:55;;;;;;;14.17;6.23;;;22.20;58.50;;;;;;5029780;28;20428;-70
2023/10/06 12:17:22;;;;;;;12.33;6.60;;;22.50;57.60;;;;;;5026992;28;20206;-71
2023/10/06 12:19:47;;;;;;;11.13;6.53;;;22.70;57.00;;;;;;5028934;28;20430;-70
2023/10/06 12:22:13;;;;;;;9.80;5.93;;;22.50;56.80;;;;;;5027961;28;20429;-70
2023/10/06 12:24:39;;;;;;;14.13;5.93;;;22.20;57.40;;;;;;5032286;28;20282;-72
2023/10/06 12:27:05;;;;;;;14.40;6.57;;;22.20;57.60;;;;;;5027048;28;20463;-71
2023/10/06 12:29:31;;;;;;;12.30;6.90;;;22.20;57.20;;;;;;5030904;28;20471;-70
2023/10/06 12:31:57;;;;;;;12.90;6.50;;;22.00;57.30;;;;;;5026027;28;20185;-69
2023/10/06 12:34:23;;;;;;;11.20;6.63;;;22.00;57.20;;;;;;5028970;28;20859;-71
2023/10/06 12:36:49;;;;;;;10.53;6.10;;;21.90;57.40;;;;;;5022180;28;20515;-70
2023/10/06 12:39:35;;;;;;;12.20;6.40;;;21.80;57.40;;;;;;5028764;28;20439;-70
2023/10/06 12:42:03;;;;;;;13.33;6.33;;;22.00;57.80;;;;;;5024565;28;20248;-71
2023/10/06 12:44:29;;;;;;;19.90;7.30;;;22.60;56.40;;;;;;5028835;28;20413;-72
2023/10/06 12:46:55;;;;;;;12.37;6.20;;;22.90;55.80;;;;;;5028310;28;20465;-71
2023/10/06 12:49:23;;;;;;;12.00;6.87;;;22.90;54.40;;;;;;5028851;28;20475;-71
2023/10/06 12:51:49;;;;;;;12.57;6.50;;;22.80;54.80;;;;;;5026302;28;20864;-71
2023/10/06 12:54:15;;;;;;;11.07;6.20;;;22.90;54.60;;;;;;5028158;28;20423;-70
2023/10/06 12:56:44;;;;;;;11.90;5.40;;;22.90;54.80;;;;;;5029120;28;20937;-70